sensor_id;sensor_type;location;lat;lon;timestamp;pressure;altitude;pressure_sealevel;temperature;humidity
61914;BME280;50095;53.336;-1.488;2022-08-03T00:00:15;99308.98;;;24.80;49.29
61914;BME280;50095;53.336;-1.488;2022-08-03T00:02:42;99303.19;;;24.56;49.32
61914;BME280;50095;53.336;-1.488;2022-08-03T00:05:09;99296.02;;;24.88;49.22
61914;BME280;50095;53.336;-1.488;2022-08-03T00:07:37;99299.91;;;24.64;48.94
61914;BME280;50095;53.336;-1.488;2022-08-03T00:10:05;99297.92;;;24.88;49.26
61914;BME280;50095;53.336;-1.488;2022-08-03T00:12:33;99297.42;;;24.55;49.44
61914;BME280;50095;53.336;-1.488;2022-08-03T00:15:00;99300.11;;;24.56;49.41
61914;BME280;50095;53.336;-1.488;2022-08-03T00:17:28;99298.50;;;24.51;49.41
61914;BME280;50095;53.336;-1.488;2022-08-03T00:19:55;99299.30;;;24.59;49.30
61914;BME280;50095;53.336;-1.488;2022-08-03T00:22:23;99293.83;;;24.72;49.30
61914;BME280;50095;53.336;-1.488;2022-08-03T00:24:50;99287.78;;;24.50;49.44
61914;BME280;50095;53.336;-1.488;2022-08-03T00:27:18;99291.85;;;24.94;48.62
61914;BME280;50095;53.336;-1.488;2022-08-03T00:29:45;99292.77;;;24.59;49.02
61914;BME280;50095;53.336;-1.488;2022-08-03T00:32:13;99288.61;;;24.85;49.09
61914;BME280;50095;53.336;-1.488;2022-08-03T00:34:40;99290.01;;;24.80;49.24
61914;BME280;50095;53.336;-1.488;2022-08-03T00:37:08;99285.68;;;24.75;49.36
61914;BME280;50095;53.336;-1.488;2022-08-03T00:39:35;99282.91;;;24.46;49.47
61914;BME280;50095;53.336;-1.488;2022-08-03T00:42:04;99279.99;;;24.63;48.95
61914;BME280;50095;53.336;-1.488;2022-08-03T00:44:38;99276.00;;;24.55;49.27
61914;BME280;50095;53.336;-1.488;2022-08-03T00:47:06;99271.63;;;24.75;49.34
61914;BME280;50095;53.336;-1.488;2022-08-03T00:49:34;99267.16;;;24.49;49.34
61914;BME280;50095;53.336;-1.488;2022-08-03T00:52:03;99261.13;;;24.81;49.30
61914;BME280;50095;53.336;-1.488;2022-08-03T00:54:31;99263.05;;;24.89;49.09
61914;BME280;50095;53.336;-1.488;2022-08-03T00:57:00;99251.06;;;24.66;49.48
61914;BME280;50095;53.336;-1.488;2022-08-03T00:59:29;99249.21;;;24.82;49.22
61914;BME280;50095;53.336;-1.488;2022-08-03T01:01:56;99240.86;;;24.93;48.89
61914;BME280;50095;53.336;-1.488;2022-08-03T01:04:24;99240.34;;;24.57;49.07
61914;BME280;50095;53.336;-1.488;2022-08-03T01:07:00;99237.55;;;24.66;49.51
61914;BME280;50095;53.336;-1.488;2022-08-03T01:09:37;99240.52;;;24.69;49.45
61914;BME280;50095;53.336;-1.488;2022-08-03T01:12:12;99240.79;;;24.92;48.90
61914;BME280;50095;53.336;-1.488;2022-08-03T01:14:45;99232.05;;;24.59;49.65
61914;BME280;50095;53.336;-1.488;2022-08-03T01:17:26;99242.81;;;24.32;49.63
61914;BME280;50095;53.336;-1.488;2022-08-03T01:20:01;99238.64;;;24.44;49.41
61914;BME280;50095;53.336;-1.488;2022-08-03T01:22:44;99246.04;;;24.67;49.46
61914;BME280;50095;53.336;-1.488;2022-08-03T01:25:26;99229.76;;;24.64;49.52
61914;BME280;50095;53.336;-1.488;2022-08-03T01:28:06;99234.00;;;24.37;49.55
61914;BME280;50095;53.336;-1.488;2022-08-03T01:30:43;99230.84;;;24.36;49.56
61914;BME280;50095;53.336;-1.488;2022-08-03T01:33:16;99228.97;;;24.42;49.38
61914;BME280;50095;53.336;-1.488;2022-08-03T01:35:47;99230.82;;;24.68;49.40
61914;BME280;50095;53.336;-1.488;2022-08-03T01:38:21;99235.03;;;24.64;49.52
61914;BME280;50095;53.336;-1.488;2022-08-03T01:40:52;99231.03;;;24.59;49.52
61914;BME280;50095;53.336;-1.488;2022-08-03T01:43:24;99228.46;;;24.70;49.27
61914;BME280;50095;53.336;-1.488;2022-08-03T01:45:51;99226.75;;;24.63;49.50
61914;BME280;50095;53.336;-1.488;2022-08-03T01:48:19;99223.73;;;24.37;49.34
61914;BME280;50095;53.336;-1.488;2022-08-03T01:50:48;99226.83;;;24.65;49.25
61914;BME280;50095;53.336;-1.488;2022-08-03T01:53:16;99229.42;;;24.67;49.12
61914;BME280;50095;53.336;-1.488;2022-08-03T01:55:47;99229.81;;;24.72;48.81
61914;BME280;50095;53.336;-1.488;2022-08-03T01:58:16;99234.39;;;24.52;48.89
61914;BME280;50095;53.336;-1.488;2022-08-03T02:00:46;99228.53;;;24.65;49.00
61914;BME280;50095;53.336;-1.488;2022-08-03T02:03:15;99229.96;;;24.15;49.63
61914;BME280;50095;53.336;-1.488;2022-08-03T02:05:44;99232.44;;;24.56;49.37
61914;BME280;50095;53.336;-1.488;2022-08-03T02:08:13;99227.17;;;24.32;49.26
61914;BME280;50095;53.336;-1.488;2022-08-03T02:10:43;99226.88;;;24.43;49.63
61914;BME280;50095;53.336;-1.488;2022-08-03T02:13:12;99221.20;;;24.41;49.00
61914;BME280;50095;53.336;-1.488;2022-08-03T02:15:42;99223.41;;;24.59;49.28
61914;BME280;50095;53.336;-1.488;2022-08-03T02:18:10;99220.50;;;24.29;48.77
61914;BME280;50095;53.336;-1.488;2022-08-03T02:20:40;99222.68;;;24.54;49.24
61914;BME280;50095;53.336;-1.488;2022-08-03T02:23:08;99217.59;;;24.76;49.24
61914;BME280;50095;53.336;-1.488;2022-08-03T02:25:42;99221.64;;;24.72;49.37
61914;BME280;50095;53.336;-1.488;2022-08-03T02:28:15;99224.78;;;24.63;48.99
61914;BME280;50095;53.336;-1.488;2022-08-03T02:30:45;99223.55;;;24.52;49.41
61914;BME280;50095;53.336;-1.488;2022-08-03T02:33:18;99221.40;;;24.52;49.35
61914;BME280;50095;53.336;-1.488;2022-08-03T02:35:46;99223.38;;;24.47;49.29
61914;BME280;50095;53.336;-1.488;2022-08-03T02:38:17;99222.92;;;24.58;49.04
61914;BME280;50095;53.336;-1.488;2022-08-03T02:40:46;99221.48;;;24.54;49.15
61914;BME280;50095;53.336;-1.488;2022-08-03T02:43:19;99214.41;;;24.08;49.69
61914;BME280;50095;53.336;-1.488;2022-08-03T02:45:48;99201.04;;;24.31;49.74
61914;BME280;50095;53.336;-1.488;2022-08-03T02:48:21;99217.38;;;24.33;49.76
61914;BME280;50095;53.336;-1.488;2022-08-03T02:50:52;99218.00;;;24.50;49.17
61914;BME280;50095;53.336;-1.488;2022-08-03T02:53:20;99219.33;;;24.30;49.74
61914;BME280;50095;53.336;-1.488;2022-08-03T02:55:49;99225.42;;;24.42;49.42
61914;BME280;50095;53.336;-1.488;2022-08-03T02:58:19;99229.42;;;24.34;49.52
61914;BME280;50095;53.336;-1.488;2022-08-03T03:00:48;99239.27;;;24.53;49.03
61914;BME280;50095;53.336;-1.488;2022-08-03T03:03:16;99245.82;;;24.24;49.43
61914;BME280;50095;53.336;-1.488;2022-08-03T03:05:45;99245.34;;;24.13;50.03
61914;BME280;50095;53.336;-1.488;2022-08-03T03:08:15;99248.81;;;24.48;48.83
61914;BME280;50095;53.336;-1.488;2022-08-03T03:10:43;99253.18;;;24.40;49.41
61914;BME280;50095;53.336;-1.488;2022-08-03T03:13:13;99247.81;;;24.29;49.63
61914;BME280;50095;53.336;-1.488;2022-08-03T03:15:41;99246.03;;;24.27;49.70
61914;BME280;50095;53.336;-1.488;2022-08-03T03:18:10;99251.22;;;24.18;49.61
61914;BME280;50095;53.336;-1.488;2022-08-03T03:20:39;99242.98;;;24.06;50.02
61914;BME280;50095;53.336;-1.488;2022-08-03T03:23:08;99239.68;;;24.16;49.74
61914;BME280;50095;53.336;-1.488;2022-08-03T03:25:37;99238.76;;;23.98;50.23
61914;BME280;50095;53.336;-1.488;2022-08-03T03:28:06;99227.38;;;24.07;50.02
61914;BME280;50095;53.336;-1.488;2022-08-03T03:30:33;99222.76;;;24.02;50.20
61914;BME280;50095;53.336;-1.488;2022-08-03T03:33:00;99225.57;;;24.42;49.43
61914;BME280;50095;53.336;-1.488;2022-08-03T03:35:28;99226.05;;;24.07;50.00
61914;BME280;50095;53.336;-1.488;2022-08-03T03:37:56;99221.02;;;23.98;50.16
61914;BME280;50095;53.336;-1.488;2022-08-03T03:40:23;99223.76;;;24.22;49.95
61914;BME280;50095;53.336;-1.488;2022-08-03T03:42:50;99230.35;;;24.26;50.01
61914;BME280;50095;53.336;-1.488;2022-08-03T03:45:18;99230.15;;;23.84;50.31
61914;BME280;50095;53.336;-1.488;2022-08-03T03:47:47;99229.56;;;24.09;50.38
61914;BME280;50095;53.336;-1.488;2022-08-03T03:50:17;99227.85;;;24.15;49.35
61914;BME280;50095;53.336;-1.488;2022-08-03T03:52:45;99227.58;;;23.87;50.32
61914;BME280;50095;53.336;-1.488;2022-08-03T03:55:15;99231.77;;;23.92;50.17
61914;BME280;50095;53.336;-1.488;2022-08-03T03:57:43;99223.58;;;23.84;50.42
61914;BME280;50095;53.336;-1.488;2022-08-03T04:00:12;99229.51;;;24.13;49.55
61914;BME280;50095;53.336;-1.488;2022-08-03T04:02:39;99239.33;;;23.99;50.51
61914;BME280;50095;53.336;-1.488;2022-08-03T04:05:08;99244.99;;;24.05;49.91
61914;BME280;50095;53.336;-1.488;2022-08-03T04:07:44;99247.34;;;23.77;50.39
61914;BME280;50095;53.336;-1.488;2022-08-03T04:10:15;99244.33;;;23.70;50.55
61914;BME280;50095;53.336;-1.488;2022-08-03T04:12:45;99248.02;;;23.75;50.54
61914;BME280;50095;53.336;-1.488;2022-08-03T04:15:14;99244.64;;;23.74;50.55
61914;BME280;50095;53.336;-1.488;2022-08-03T04:17:43;99240.02;;;23.68;50.59
61914;BME280;50095;53.336;-1.488;2022-08-03T04:20:13;99229.09;;;23.72;50.61
61914;BME280;50095;53.336;-1.488;2022-08-03T04:22:41;99229.33;;;23.78;50.86
61914;BME280;50095;53.336;-1.488;2022-08-03T04:25:16;99240.10;;;24.16;50.51
61914;BME280;50095;53.336;-1.488;2022-08-03T04:27:46;99244.90;;;23.79;49.91
61914;BME280;50095;53.336;-1.488;2022-08-03T04:30:15;99247.40;;;23.81;50.22
61914;BME280;50095;53.336;-1.488;2022-08-03T04:32:43;99249.01;;;23.78;50.31
61914;BME280;50095;53.336;-1.488;2022-08-03T04:35:11;99253.72;;;24.02;50.37
61914;BME280;50095;53.336;-1.488;2022-08-03T04:37:42;99251.62;;;23.85;50.69
61914;BME280;50095;53.336;-1.488;2022-08-03T04:40:21;99250.28;;;23.83;50.65
61914;BME280;50095;53.336;-1.488;2022-08-03T04:42:49;99254.73;;;23.84;50.67
61914;BME280;50095;53.336;-1.488;2022-08-03T04:45:18;99251.63;;;23.70;50.50
61914;BME280;50095;53.336;-1.488;2022-08-03T04:47:48;99259.83;;;24.00;50.11
61914;BME280;50095;53.336;-1.488;2022-08-03T04:50:16;99252.94;;;24.09;50.40
61914;BME280;50095;53.336;-1.488;2022-08-03T04:52:44;99254.00;;;23.62;50.51
61914;BME280;50095;53.336;-1.488;2022-08-03T04:55:22;99255.62;;;24.04;49.32
61914;BME280;50095;53.336;-1.488;2022-08-03T04:57:51;99265.07;;;23.83;50.08
61914;BME280;50095;53.336;-1.488;2022-08-03T05:00:19;99261.29;;;23.96;50.08
61914;BME280;50095;53.336;-1.488;2022-08-03T05:02:47;99267.87;;;23.84;50.01
61914;BME280;50095;53.336;-1.488;2022-08-03T05:05:14;99259.44;;;23.71;51.07
61914;BME280;50095;53.336;-1.488;2022-08-03T05:07:42;99259.37;;;23.23;51.58
61914;BME280;50095;53.336;-1.488;2022-08-03T05:10:11;99264.51;;;23.23;51.62
61914;BME280;50095;53.336;-1.488;2022-08-03T05:12:39;99265.71;;;23.51;51.62
61914;BME280;50095;53.336;-1.488;2022-08-03T05:15:07;99270.96;;;23.36;51.35
61914;BME280;50095;53.336;-1.488;2022-08-03T05:17:35;99279.31;;;23.85;50.86
61914;BME280;50095;53.336;-1.488;2022-08-03T05:20:03;99282.18;;;23.28;52.02
61914;BME280;50095;53.336;-1.488;2022-08-03T05:22:31;99289.26;;;21.98;54.35
61914;BME280;50095;53.336;-1.488;2022-08-03T05:25:00;99290.54;;;22.81;53.82
61914;BME280;50095;53.336;-1.488;2022-08-03T05:27:28;99289.93;;;22.92;52.60
61914;BME280;50095;53.336;-1.488;2022-08-03T05:29:55;99287.32;;;23.38;51.96
61914;BME280;50095;53.336;-1.488;2022-08-03T05:32:23;99294.80;;;23.05;51.96
61914;BME280;50095;53.336;-1.488;2022-08-03T05:34:50;99298.41;;;23.14;52.45
61914;BME280;50095;53.336;-1.488;2022-08-03T05:37:18;99296.41;;;23.23;51.80
61914;BME280;50095;53.336;-1.488;2022-08-03T05:39:45;99301.92;;;23.24;51.74
61914;BME280;50095;53.336;-1.488;2022-08-03T05:42:14;99300.23;;;23.47;51.31
61914;BME280;50095;53.336;-1.488;2022-08-03T05:44:42;99302.41;;;23.62;51.00
61914;BME280;50095;53.336;-1.488;2022-08-03T05:47:10;99304.64;;;23.69;50.88
61914;BME280;50095;53.336;-1.488;2022-08-03T05:49:37;99310.98;;;23.76;50.68
61914;BME280;50095;53.336;-1.488;2022-08-03T05:52:05;99312.96;;;23.52;51.19
61914;BME280;50095;53.336;-1.488;2022-08-03T05:54:32;99312.20;;;23.13;51.53
61914;BME280;50095;53.336;-1.488;2022-08-03T05:57:00;99314.56;;;23.76;50.62
61914;BME280;50095;53.336;-1.488;2022-08-03T05:59:27;99318.47;;;24.24;49.55
61914;BME280;50095;53.336;-1.488;2022-08-03T06:01:55;99316.72;;;24.00;49.80
61914;BME280;50095;53.336;-1.488;2022-08-03T06:04:23;99316.55;;;23.57;50.65
61914;BME280;50095;53.336;-1.488;2022-08-03T06:06:50;99320.28;;;24.00;49.97
61914;BME280;50095;53.336;-1.488;2022-08-03T06:09:17;99319.03;;;22.94;51.89
61914;BME280;50095;53.336;-1.488;2022-08-03T06:11:44;99319.62;;;24.07;50.34
61914;BME280;50095;53.336;-1.488;2022-08-03T06:14:12;99322.09;;;23.39;51.22
61914;BME280;50095;53.336;-1.488;2022-08-03T06:16:40;99323.40;;;22.99;51.76
61914;BME280;50095;53.336;-1.488;2022-08-03T06:19:07;99319.71;;;23.93;50.17
61914;BME280;50095;53.336;-1.488;2022-08-03T06:21:34;99324.35;;;23.73;50.48
61914;BME280;50095;53.336;-1.488;2022-08-03T06:24:02;99328.59;;;23.69;50.94
61914;BME280;50095;53.336;-1.488;2022-08-03T06:26:31;99328.11;;;23.68;50.58
61914;BME280;50095;53.336;-1.488;2022-08-03T06:28:59;99331.18;;;23.90;50.21
61914;BME280;50095;53.336;-1.488;2022-08-03T06:31:27;99336.57;;;24.39;49.30
61914;BME280;50095;53.336;-1.488;2022-08-03T06:33:54;99333.58;;;23.89;49.75
61914;BME280;50095;53.336;-1.488;2022-08-03T06:36:21;99336.78;;;24.22;49.57
61914;BME280;50095;53.336;-1.488;2022-08-03T06:38:49;99339.17;;;24.39;49.60
61914;BME280;50095;53.336;-1.488;2022-08-03T06:41:17;99339.90;;;24.27;49.45
61914;BME280;50095;53.336;-1.488;2022-08-03T06:43:44;99344.31;;;24.27;48.90
61914;BME280;50095;53.336;-1.488;2022-08-03T06:46:12;99342.48;;;24.31;48.85
61914;BME280;50095;53.336;-1.488;2022-08-03T06:48:39;99340.36;;;24.16;49.22
61914;BME280;50095;53.336;-1.488;2022-08-03T06:51:07;99337.20;;;23.70;49.55
61914;BME280;50095;53.336;-1.488;2022-08-03T06:53:34;99339.63;;;23.99;50.20
61914;BME280;50095;53.336;-1.488;2022-08-03T06:56:03;99337.10;;;24.24;49.48
61914;BME280;50095;53.336;-1.488;2022-08-03T06:58:31;99347.04;;;24.28;48.24
61914;BME280;50095;53.336;-1.488;2022-08-03T07:00:58;99346.41;;;23.87;48.80
61914;BME280;50095;53.336;-1.488;2022-08-03T07:03:26;99345.67;;;24.70;48.28
61914;BME280;50095;53.336;-1.488;2022-08-03T07:05:54;99350.00;;;24.69;47.76
61914;BME280;50095;53.336;-1.488;2022-08-03T07:08:21;99349.69;;;24.06;48.33
61914;BME280;50095;53.336;-1.488;2022-08-03T07:10:49;99349.53;;;24.03;48.71
61914;BME280;50095;53.336;-1.488;2022-08-03T07:13:16;99356.35;;;24.70;48.17
61914;BME280;50095;53.336;-1.488;2022-08-03T07:15:44;99362.01;;;24.35;47.98
61914;BME280;50095;53.336;-1.488;2022-08-03T07:18:12;99360.03;;;23.33;48.54
61914;BME280;50095;53.336;-1.488;2022-08-03T07:20:40;99361.61;;;23.40;48.13
61914;BME280;50095;53.336;-1.488;2022-08-03T07:23:07;99364.04;;;24.10;48.50
61914;BME280;50095;53.336;-1.488;2022-08-03T07:25:35;99365.10;;;24.50;48.22
61914;BME280;50095;53.336;-1.488;2022-08-03T07:28:02;99374.46;;;24.27;48.32
61914;BME280;50095;53.336;-1.488;2022-08-03T07:30:30;99378.97;;;24.89;47.24
61914;BME280;50095;53.336;-1.488;2022-08-03T07:32:57;99381.48;;;24.44;47.80
61914;BME280;50095;53.336;-1.488;2022-08-03T07:35:25;99384.11;;;24.68;47.60
61914;BME280;50095;53.336;-1.488;2022-08-03T07:37:52;99383.42;;;24.74;48.12
61914;BME280;50095;53.336;-1.488;2022-08-03T07:40:19;99382.22;;;25.18;47.79
61914;BME280;50095;53.336;-1.488;2022-08-03T07:42:46;99386.53;;;25.48;47.33
61914;BME280;50095;53.336;-1.488;2022-08-03T07:45:14;99378.18;;;25.18;46.68
61914;BME280;50095;53.336;-1.488;2022-08-03T07:47:42;99380.79;;;24.70;48.01
61914;BME280;50095;53.336;-1.488;2022-08-03T07:50:09;99386.35;;;24.81;47.48
61914;BME280;50095;53.336;-1.488;2022-08-03T07:52:36;99394.81;;;24.63;47.62
61914;BME280;50095;53.336;-1.488;2022-08-03T07:55:05;99391.55;;;24.58;46.76
61914;BME280;50095;53.336;-1.488;2022-08-03T07:57:32;99399.94;;;24.86;47.19
61914;BME280;50095;53.336;-1.488;2022-08-03T07:59:59;99392.06;;;24.88;46.92
61914;BME280;50095;53.336;-1.488;2022-08-03T08:02:27;99400.73;;;25.47;45.38
61914;BME280;50095;53.336;-1.488;2022-08-03T08:04:54;99404.46;;;25.16;44.21
61914;BME280;50095;53.336;-1.488;2022-08-03T08:07:22;99406.22;;;25.24;44.74
61914;BME280;50095;53.336;-1.488;2022-08-03T08:09:50;99400.53;;;25.10;46.44
61914;BME280;50095;53.336;-1.488;2022-08-03T08:12:18;99398.88;;;25.06;46.20
61914;BME280;50095;53.336;-1.488;2022-08-03T08:14:45;99396.26;;;25.11;46.14
61914;BME280;50095;53.336;-1.488;2022-08-03T08:17:13;99399.65;;;25.15;46.17
61914;BME280;50095;53.336;-1.488;2022-08-03T08:19:40;99400.67;;;24.60;46.13
61914;BME280;50095;53.336;-1.488;2022-08-03T08:22:08;99410.35;;;24.64;45.69
61914;BME280;50095;53.336;-1.488;2022-08-03T08:24:35;99412.14;;;24.68;46.18
61914;BME280;50095;53.336;-1.488;2022-08-03T08:27:03;99414.62;;;24.74;45.89
61914;BME280;50095;53.336;-1.488;2022-08-03T08:29:31;99410.64;;;25.13;45.89
61914;BME280;50095;53.336;-1.488;2022-08-03T08:31:58;99410.80;;;25.37;45.46
61914;BME280;50095;53.336;-1.488;2022-08-03T08:34:25;99418.09;;;25.27;45.54
61914;BME280;50095;53.336;-1.488;2022-08-03T08:36:53;99416.90;;;25.49;45.16
61914;BME280;50095;53.336;-1.488;2022-08-03T08:39:20;99407.42;;;25.52;44.07
61914;BME280;50095;53.336;-1.488;2022-08-03T08:41:51;99412.73;;;25.80;44.51
61914;BME280;50095;53.336;-1.488;2022-08-03T08:44:18;99420.31;;;25.68;44.07
61914;BME280;50095;53.336;-1.488;2022-08-03T08:46:46;99414.18;;;25.14;44.55
61914;BME280;50095;53.336;-1.488;2022-08-03T08:49:16;99425.46;;;25.75;44.78
61914;BME280;50095;53.336;-1.488;2022-08-03T08:51:45;99430.60;;;25.70;44.45
61914;BME280;50095;53.336;-1.488;2022-08-03T08:54:13;99428.44;;;25.51;44.12
61914;BME280;50095;53.336;-1.488;2022-08-03T08:56:42;99422.88;;;24.93;44.82
61914;BME280;50095;53.336;-1.488;2022-08-03T08:59:09;99429.17;;;24.77;45.27
61914;BME280;50095;53.336;-1.488;2022-08-03T09:01:37;99423.67;;;25.24;44.71
61914;BME280;50095;53.336;-1.488;2022-08-03T09:04:05;99425.22;;;25.47;44.20
61914;BME280;50095;53.336;-1.488;2022-08-03T09:06:33;99426.38;;;25.40;43.94
61914;BME280;50095;53.336;-1.488;2022-08-03T09:09:00;99422.22;;;26.10;43.05
61914;BME280;50095;53.336;-1.488;2022-08-03T09:11:28;99423.57;;;25.97;42.84
61914;BME280;50095;53.336;-1.488;2022-08-03T09:13:56;99420.84;;;25.71;42.89
61914;BME280;50095;53.336;-1.488;2022-08-03T09:16:24;99424.36;;;26.16;42.23
61914;BME280;50095;53.336;-1.488;2022-08-03T09:18:53;99424.01;;;25.71;41.55
61914;BME280;50095;53.336;-1.488;2022-08-03T09:21:23;99424.16;;;25.97;42.19
61914;BME280;50095;53.336;-1.488;2022-08-03T09:23:52;99426.75;;;26.15;40.68
61914;BME280;50095;53.336;-1.488;2022-08-03T09:26:22;99419.76;;;26.00;41.38
61914;BME280;50095;53.336;-1.488;2022-08-03T09:28:58;99420.86;;;26.02;41.83
61914;BME280;50095;53.336;-1.488;2022-08-03T09:31:31;99425.19;;;26.50;41.39
61914;BME280;50095;53.336;-1.488;2022-08-03T09:34:01;99426.47;;;26.64;40.58
61914;BME280;50095;53.336;-1.488;2022-08-03T09:36:39;99422.41;;;26.09;40.54
61914;BME280;50095;53.336;-1.488;2022-08-03T09:39:09;99430.80;;;26.31;41.68
61914;BME280;50095;53.336;-1.488;2022-08-03T09:41:38;99432.80;;;25.52;41.48
61914;BME280;50095;53.336;-1.488;2022-08-03T09:44:06;99439.54;;;26.50;40.78
61914;BME280;50095;53.336;-1.488;2022-08-03T09:46:48;99439.83;;;26.75;40.61
61914;BME280;50095;53.336;-1.488;2022-08-03T09:49:15;99432.56;;;26.71;40.40
61914;BME280;50095;53.336;-1.488;2022-08-03T09:51:43;99445.20;;;26.36;39.44
61914;BME280;50095;53.336;-1.488;2022-08-03T09:54:10;99440.23;;;26.45;40.40
61914;BME280;50095;53.336;-1.488;2022-08-03T09:56:40;99429.83;;;26.02;40.15
61914;BME280;50095;53.336;-1.488;2022-08-03T09:59:08;99429.85;;;27.29;39.17
61914;BME280;50095;53.336;-1.488;2022-08-03T10:01:36;99432.27;;;26.17;39.60
61914;BME280;50095;53.336;-1.488;2022-08-03T10:04:04;99442.41;;;26.29;39.88
61914;BME280;50095;53.336;-1.488;2022-08-03T10:06:31;99432.27;;;27.21;39.28
61914;BME280;50095;53.336;-1.488;2022-08-03T10:09:09;99433.57;;;26.99;39.18
61914;BME280;50095;53.336;-1.488;2022-08-03T10:11:38;99435.25;;;26.88;37.84
61914;BME280;50095;53.336;-1.488;2022-08-03T10:14:09;99432.24;;;27.03;39.07
61914;BME280;50095;53.336;-1.488;2022-08-03T10:16:38;99428.51;;;27.06;39.90
61914;BME280;50095;53.336;-1.488;2022-08-03T10:19:06;99429.56;;;26.97;37.35
61914;BME280;50095;53.336;-1.488;2022-08-03T10:21:37;99430.32;;;27.14;39.02
61914;BME280;50095;53.336;-1.488;2022-08-03T10:24:08;99431.43;;;27.58;39.11
61914;BME280;50095;53.336;-1.488;2022-08-03T10:26:38;99431.49;;;27.80;38.72
61914;BME280;50095;53.336;-1.488;2022-08-03T10:29:11;99438.80;;;27.13;38.08
61914;BME280;50095;53.336;-1.488;2022-08-03T10:31:45;99435.61;;;27.68;37.35
61914;BME280;50095;53.336;-1.488;2022-08-03T10:34:18;99442.28;;;27.58;38.09
61914;BME280;50095;53.336;-1.488;2022-08-03T10:36:48;99436.27;;;27.71;37.99
61914;BME280;50095;53.336;-1.488;2022-08-03T10:39:18;99440.62;;;28.20;37.68
61914;BME280;50095;53.336;-1.488;2022-08-03T10:41:48;99437.72;;;27.39;38.05
61914;BME280;50095;53.336;-1.488;2022-08-03T10:44:18;99437.05;;;27.81;36.33
61914;BME280;50095;53.336;-1.488;2022-08-03T10:46:46;99432.77;;;27.68;37.08
61914;BME280;50095;53.336;-1.488;2022-08-03T10:49:15;99429.82;;;28.38;37.15
61914;BME280;50095;53.336;-1.488;2022-08-03T10:51:44;99442.93;;;28.52;36.92
61914;BME280;50095;53.336;-1.488;2022-08-03T10:54:49;99435.16;;;27.56;38.16
61914;BME280;50095;53.336;-1.488;2022-08-03T10:57:42;99441.04;;;27.84;35.42
61914;BME280;50095;53.336;-1.488;2022-08-03T11:00:10;99440.74;;;26.89;37.83
61914;BME280;50095;53.336;-1.488;2022-08-03T11:03:11;99447.19;;;27.90;37.62
61914;BME280;50095;53.336;-1.488;2022-08-03T11:05:41;99451.04;;;27.51;37.71
61914;BME280;50095;53.336;-1.488;2022-08-03T11:08:27;99447.57;;;27.80;37.59
61914;BME280;50095;53.336;-1.488;2022-08-03T11:10:58;99448.06;;;28.09;37.82
61914;BME280;50095;53.336;-1.488;2022-08-03T11:13:27;99449.92;;;28.44;37.40
61914;BME280;50095;53.336;-1.488;2022-08-03T11:15:57;99448.23;;;28.43;36.64
61914;BME280;50095;53.336;-1.488;2022-08-03T11:18:25;99458.05;;;27.22;36.89
61914;BME280;50095;53.336;-1.488;2022-08-03T11:20:54;99451.53;;;27.79;37.30
61914;BME280;50095;53.336;-1.488;2022-08-03T11:23:41;99452.28;;;28.25;37.66
61914;BME280;50095;53.336;-1.488;2022-08-03T11:26:10;99452.96;;;27.60;37.28
61914;BME280;50095;53.336;-1.488;2022-08-03T11:28:39;99459.71;;;28.21;35.91
61914;BME280;50095;53.336;-1.488;2022-08-03T11:32:11;99466.98;;;26.16;37.38
61914;BME280;50095;53.336;-1.488;2022-08-03T11:35:06;99471.22;;;26.27;38.89
61914;BME280;50095;53.336;-1.488;2022-08-03T11:37:34;99464.60;;;26.19;37.87
61914;BME280;50095;53.336;-1.488;2022-08-03T11:40:03;99468.20;;;26.68;38.69
61914;BME280;50095;53.336;-1.488;2022-08-03T11:42:40;99457.81;;;27.27;38.79
61914;BME280;50095;53.336;-1.488;2022-08-03T11:45:08;99456.42;;;27.02;38.95
61914;BME280;50095;53.336;-1.488;2022-08-03T11:47:37;99459.41;;;27.19;38.58
61914;BME280;50095;53.336;-1.488;2022-08-03T11:50:07;99459.95;;;26.66;37.16
61914;BME280;50095;53.336;-1.488;2022-08-03T11:52:41;99453.21;;;27.21;38.07
61914;BME280;50095;53.336;-1.488;2022-08-03T11:55:10;99454.19;;;26.26;38.68
61914;BME280;50095;53.336;-1.488;2022-08-03T11:57:38;99454.80;;;26.84;39.13
61914;BME280;50095;53.336;-1.488;2022-08-03T12:00:20;99452.25;;;27.59;38.27
61914;BME280;50095;53.336;-1.488;2022-08-03T12:02:58;99454.02;;;27.61;38.56
61914;BME280;50095;53.336;-1.488;2022-08-03T12:05:45;99458.29;;;27.17;39.27
61914;BME280;50095;53.336;-1.488;2022-08-03T12:08:15;99456.99;;;27.36;39.26
61914;BME280;50095;53.336;-1.488;2022-08-03T12:10:49;99462.19;;;27.58;39.21
61914;BME280;50095;53.336;-1.488;2022-08-03T12:13:17;99471.23;;;25.74;39.58
61914;BME280;50095;53.336;-1.488;2022-08-03T12:15:51;99468.04;;;26.40;37.49
61914;BME280;50095;53.336;-1.488;2022-08-03T12:18:20;99465.29;;;27.48;38.85
61914;BME280;50095;53.336;-1.488;2022-08-03T12:20:49;99465.77;;;27.58;38.73
61914;BME280;50095;53.336;-1.488;2022-08-03T12:23:17;99465.18;;;27.60;38.47
61914;BME280;50095;53.336;-1.488;2022-08-03T12:25:46;99477.38;;;28.56;37.61
61914;BME280;50095;53.336;-1.488;2022-08-03T12:28:16;99473.33;;;27.67;36.25
61914;BME280;50095;53.336;-1.488;2022-08-03T12:30:45;99477.17;;;26.14;38.76
61914;BME280;50095;53.336;-1.488;2022-08-03T12:33:17;99469.25;;;27.54;37.87
61914;BME280;50095;53.336;-1.488;2022-08-03T12:35:45;99474.08;;;27.51;37.79
61914;BME280;50095;53.336;-1.488;2022-08-03T12:38:18;99470.61;;;27.92;37.05
61914;BME280;50095;53.336;-1.488;2022-08-03T12:40:55;99461.43;;;28.21;36.88
61914;BME280;50095;53.336;-1.488;2022-08-03T12:43:24;99468.00;;;28.32;36.06
61914;BME280;50095;53.336;-1.488;2022-08-03T12:46:06;99480.89;;;26.57;36.66
61914;BME280;50095;53.336;-1.488;2022-08-03T12:48:33;99465.04;;;27.70;37.74
61914;BME280;50095;53.336;-1.488;2022-08-03T12:51:09;99457.16;;;27.89;36.07
61914;BME280;50095;53.336;-1.488;2022-08-03T12:53:36;99455.98;;;27.92;37.68
61914;BME280;50095;53.336;-1.488;2022-08-03T12:56:04;99450.40;;;27.30;37.87
61914;BME280;50095;53.336;-1.488;2022-08-03T12:58:34;99455.95;;;27.46;37.23
61914;BME280;50095;53.336;-1.488;2022-08-03T13:01:03;99456.89;;;27.88;37.11
61914;BME280;50095;53.336;-1.488;2022-08-03T13:03:39;99462.16;;;27.46;37.80